Time;durP1;ratioP1;P1;durP2;ratioP2;P2;SDS_P1;SDS_P2;PMS_P1;PMS_P2;Temp;Humidity;BMP_temperature;BMP_pressure;BME280_temperature;BME280_humidity;BME280_pressure;Samples;Min_cycle;Max_cycle;Signal;HPM_P1;HPM_P2
2020/12/04 00:00:29;;;;;;;8.40;6.85;;;;;;;;;;5075729;28;20210;-50
2020/12/04 00:02:56;;;;;;;8.35;5.65;;;;;;;;;;5076048;28;20221;-53
2020/12/04 00:05:23;;;;;;;8.23;6.05;;;;;;;;;;5075173;28;20219;-49
2020/12/04 00:07:50;;;;;;;8.88;6.32;;;;;;;;;;5075845;28;20210;-51
2020/12/04 00:10:19;;;;;;;8.60;6.10;;;;;;;;;;5076149;28;20212;-55
2020/12/04 00:12:52;;;;;;;7.57;4.53;;;;;;;;;;5075772;28;20235;-52
2020/12/04 00:15:18;;;;;;;19.48;7.35;;;;;;;;;;5075576;28;20193;-49
2020/12/04 00:17:45;;;;;;;9.38;5.43;;;;;;;;;;5075401;28;20201;-52
2020/12/04 00:20:13;;;;;;;9.43;6.40;;;;;;;;;;5075716;28;20205;-54
2020/12/04 00:22:40;;;;;;;8.70;5.45;;;;;;;;;;5075289;28;20192;-53
2020/12/04 00:25:07;;;;;;;8.32;5.70;;;;;;;;;;5075741;28;20212;-53
2020/12/04 00:28:01;;;;;;;8.00;5.43;;;;;;;;;;5076115;28;20185;-47
2020/12/04 00:30:29;;;;;;;10.55;6.72;;;;;;;;;;5075002;28;20298;-53
2020/12/04 00:32:56;;;;;;;9.85;6.28;;;;;;;;;;5075697;28;20233;-52
2020/12/04 00:35:32;;;;;;;8.50;5.68;;;;;;;;;;5075683;28;20216;-53
2020/12/04 00:37:58;;;;;;;9.07;5.72;;;;;;;;;;5060617;28;20208;-56
2020/12/04 00:40:25;;;;;;;8.05;5.55;;;;;;;;;;5075603;28;20212;-51
2020/12/04 00:42:58;;;;;;;10.00;5.82;;;;;;;;;;5074733;28;20212;-53
2020/12/04 00:45:27;;;;;;;8.82;6.00;;;;;;;;;;5075433;28;20239;-54
2020/12/04 00:47:55;;;;;;;6.80;4.65;;;;;;;;;;5075309;28;20208;-49
2020/12/04 00:50:44;;;;;;;9.57;5.53;;;;;;;;;;5075401;28;20213;-50
2020/12/04 00:53:11;;;;;;;8.95;6.05;;;;;;;;;;5075344;28;20229;-52
2020/12/04 00:55:38;;;;;;;7.63;5.70;;;;;;;;;;5075000;28;20244;-56
2020/12/04 00:58:05;;;;;;;8.45;6.00;;;;;;;;;;5075797;28;20236;-55
2020/12/04 01:00:32;;;;;;;9.52;6.68;;;;;;;;;;5074973;28;20231;-52
2020/12/04 01:03:00;;;;;;;13.52;6.28;;;;;;;;;;5075888;28;20197;-53
2020/12/04 01:05:33;;;;;;;7.97;5.70;;;;;;;;;;5076050;28;20216;-52
2020/12/04 01:08:00;;;;;;;9.30;6.03;;;;;;;;;;5075733;28;20216;-50
2020/12/04 01:10:29;;;;;;;13.00;6.70;;;;;;;;;;5076092;28;20221;-55
2020/12/04 01:13:15;;;;;;;8.55;5.95;;;;;;;;;;5079676;28;20221;-50
2020/12/04 01:15:41;;;;;;;9.75;6.60;;;;;;;;;;5078680;28;20210;-56
2020/12/04 01:18:09;;;;;;;9.70;7.13;;;;;;;;;;5078786;28;20205;-53
2020/12/04 01:20:43;;;;;;;9.10;6.40;;;;;;;;;;5078987;28;20212;-57
2020/12/04 01:23:10;;;;;;;9.95;6.80;;;;;;;;;;5078579;28;20214;-51
2020/12/04 01:25:39;;;;;;;8.50;6.50;;;;;;;;;;5079477;28;20204;-47
2020/12/04 01:28:06;;;;;;;9.63;6.60;;;;;;;;;;5061123;28;20215;-47
2020/12/04 01:30:33;;;;;;;9.65;7.20;;;;;;;;;;5078495;28;20198;-51
2020/12/04 01:33:20;;;;;;;9.35;6.18;;;;;;;;;;5079223;28;20260;-56
2020/12/04 01:35:48;;;;;;;9.63;6.18;;;;;;;;;;5076880;28;20608;-55
2020/12/04 01:38:15;;;;;;;9.60;6.47;;;;;;;;;;5078404;28;20209;-58
2020/12/04 01:40:46;;;;;;;9.27;6.72;;;;;;;;;;5079516;28;20213;-55
2020/12/04 01:43:13;;;;;;;10.57;6.65;;;;;;;;;;5077030;28;20245;-57
2020/12/04 01:45:40;;;;;;;9.73;7.07;;;;;;;;;;5078979;28;20204;-54
2020/12/04 01:48:07;;;;;;;11.57;7.63;;;;;;;;;;5079639;28;20192;-54
2020/12/04 01:50:34;;;;;;;7.70;6.10;;;;;;;;;;5079627;28;20208;-52
2020/12/04 01:53:02;;;;;;;9.88;7.15;;;;;;;;;;5078991;28;20212;-57
2020/12/04 01:55:32;;;;;;;9.25;6.60;;;;;;;;;;5059267;28;20207;-50
2020/12/04 01:58:02;;;;;;;7.53;5.35;;;;;;;;;;5059001;28;20194;-51
2020/12/04 02:00:29;;;;;;;11.52;6.55;;;;;;;;;;5059229;28;20189;-56
2020/12/04 02:02:57;;;;;;;11.60;8.10;;;;;;;;;;5058858;28;20237;-54
2020/12/04 02:05:24;;;;;;;8.88;5.85;;;;;;;;;;5058906;28;20206;-51
2020/12/04 02:07:56;;;;;;;9.95;6.65;;;;;;;;;;5057900;28;20213;-55
2020/12/04 02:10:59;;;;;;;13.60;6.30;;;;;;;;;;5058126;28;20214;-47
2020/12/04 02:13:30;;;;;;;9.63;6.45;;;;;;;;;;5057598;28;20262;-53
2020/12/04 02:15:57;;;;;;;10.00;6.60;;;;;;;;;;5058084;28;20228;-45
2020/12/04 02:18:27;;;;;;;9.98;6.22;;;;;;;;;;5057332;28;20212;-47
2020/12/04 02:20:59;;;;;;;8.98;6.53;;;;;;;;;;5058025;28;20205;-50
2020/12/04 02:23:25;;;;;;;9.77;6.15;;;;;;;;;;5057141;28;20224;-54
2020/12/04 02:25:57;;;;;;;8.73;6.32;;;;;;;;;;5057477;28;20214;-47
2020/12/04 02:28:34;;;;;;;14.27;7.63;;;;;;;;;;5057735;28;20221;-50
2020/12/04 02:31:01;;;;;;;9.90;6.75;;;;;;;;;;5057093;28;20217;-51
2020/12/04 02:33:28;;;;;;;9.00;6.90;;;;;;;;;;5057732;28;20236;-47
2020/12/04 02:35:55;;;;;;;10.27;7.47;;;;;;;;;;5057257;28;20816;-49
2020/12/04 02:38:28;;;;;;;10.25;5.85;;;;;;;;;;5057568;28;20198;-51
2020/12/04 02:40:57;;;;;;;8.68;6.90;;;;;;;;;;5056691;28;20221;-51
2020/12/04 02:43:26;;;;;;;11.65;6.82;;;;;;;;;;5057974;28;20225;-51
2020/12/04 02:45:53;;;;;;;10.10;6.55;;;;;;;;;;5057152;28;20278;-48
2020/12/04 02:48:21;;;;;;;9.60;6.30;;;;;;;;;;5069890;28;20232;-51
2020/12/04 02:50:48;;;;;;;12.73;7.45;;;;;;;;;;5076491;28;20213;-49
2020/12/04 02:53:14;;;;;;;9.75;6.40;;;;;;;;;;5076768;28;20236;-49
2020/12/04 02:55:42;;;;;;;8.15;6.38;;;;;;;;;;5077176;28;20198;-47
2020/12/04 02:58:28;;;;;;;13.15;7.10;;;;;;;;;;5077511;28;20208;-47
2020/12/04 03:00:54;;;;;;;10.85;7.70;;;;;;;;;;5077398;28;20207;-50
2020/12/04 03:03:21;;;;;;;14.95;6.88;;;;;;;;;;5077383;28;20205;-52
2020/12/04 03:06:08;;;;;;;13.88;7.13;;;;;;;;;;5076787;28;20243;-57
2020/12/04 03:08:35;;;;;;;8.93;6.10;;;;;;;;;;5074940;28;20240;-55
2020/12/04 03:11:02;;;;;;;8.32;6.38;;;;;;;;;;5077071;28;20479;-49
2020/12/04 03:13:47;;;;;;;7.80;6.22;;;;;;;;;;5077114;28;20217;-52
2020/12/04 03:16:14;;;;;;;11.30;6.90;;;;;;;;;;5074743;28;20251;-49
2020/12/04 03:18:41;;;;;;;10.35;6.80;;;;;;;;;;5076200;28;20196;-49
2020/12/04 03:21:09;;;;;;;10.07;6.65;;;;;;;;;;5076508;28;20226;-49
2020/12/04 03:23:35;;;;;;;10.18;6.07;;;;;;;;;;5077711;28;20227;-51
2020/12/04 03:26:21;;;;;;;7.65;5.63;;;;;;;;;;5076514;28;20206;-53
2020/12/04 03:28:48;;;;;;;12.15;6.90;;;;;;;;;;5076631;28;20196;-54
2020/12/04 03:31:15;;;;;;;9.80;5.90;;;;;;;;;;5076456;28;20209;-52
2020/12/04 03:33:53;;;;;;;9.30;6.05;;;;;;;;;;5075825;28;20221;-51
2020/12/04 03:36:22;;;;;;;9.18;6.22;;;;;;;;;;5074360;28;20241;-54
2020/12/04 03:38:48;;;;;;;8.82;6.20;;;;;;;;;;5076638;28;20221;-56
2020/12/04 03:41:27;;;;;;;9.60;6.20;;;;;;;;;;5076984;28;20200;-46
2020/12/04 03:43:54;;;;;;;8.63;5.60;;;;;;;;;;5076082;28;20200;-53
2020/12/04 03:46:21;;;;;;;8.88;6.38;;;;;;;;;;5075523;28;20213;-54
2020/12/04 03:48:56;;;;;;;12.77;6.38;;;;;;;;;;5074015;28;20221;-52
2020/12/04 03:51:23;;;;;;;7.10;5.85;;;;;;;;;;5058426;28;20248;-54
2020/12/04 03:53:50;;;;;;;7.78;4.95;;;;;;;;;;5056665;28;20264;-54
2020/12/04 03:56:20;;;;;;;8.18;5.65;;;;;;;;;;5056245;28;20221;-54
2020/12/04 03:58:48;;;;;;;9.63;6.13;;;;;;;;;;5055463;28;20233;-51
2020/12/04 04:01:15;;;;;;;7.13;5.55;;;;;;;;;;5055784;28;20205;-54
2020/12/04 04:03:51;;;;;;;8.18;5.35;;;;;;;;;;5065073;28;20212;-52
2020/12/04 04:06:18;;;;;;;8.68;5.63;;;;;;;;;;5075870;28;20264;-55
2020/12/04 04:08:45;;;;;;;6.45;4.57;;;;;;;;;;5075334;28;20237;-52
2020/12/04 04:11:13;;;;;;;8.90;6.07;;;;;;;;;;5075386;28;20199;-45
2020/12/04 04:13:43;;;;;;;6.53;4.72;;;;;;;;;;5075653;28;20253;-55
2020/12/04 04:16:15;;;;;;;8.60;5.63;;;;;;;;;;5075977;28;20198;-56
2020/12/04 04:19:06;;;;;;;8.80;5.38;;;;;;;;;;5070386;28;20210;-50
2020/12/04 04:21:39;;;;;;;7.25;5.18;;;;;;;;;;5075843;28;20203;-56
2020/12/04 04:24:05;;;;;;;7.78;4.88;;;;;;;;;;5076129;28;20219;-47
2020/12/04 04:27:02;;;;;;;9.48;5.75;;;;;;;;;;5076028;28;20277;-53
2020/12/04 04:29:30;;;;;;;9.68;6.05;;;;;;;;;;5074429;28;20229;-51
2020/12/04 04:31:58;;;;;;;7.30;5.40;;;;;;;;;;5076672;28;20205;-58
2020/12/04 04:37:28;;;;;;;6.50;4.63;;;;;;;;;;5073843;28;20228;-51
2020/12/04 04:39:55;;;;;;;6.95;4.90;;;;;;;;;;5075600;28;20206;-48
2020/12/04 04:42:33;;;;;;;8.95;5.30;;;;;;;;;;5075523;28;20196;-49
2020/12/04 04:45:03;;;;;;;11.35;5.28;;;;;;;;;;5075849;28;20213;-50
2020/12/04 04:47:32;;;;;;;8.15;5.10;;;;;;;;;;5079721;28;20272;-50
2020/12/04 04:50:01;;;;;;;8.60;5.18;;;;;;;;;;5078560;28;20209;-48
2020/12/04 04:52:28;;;;;;;7.28;4.82;;;;;;;;;;5079739;28;20210;-48
2020/12/04 04:54:55;;;;;;;6.22;4.38;;;;;;;;;;5079564;28;20193;-55
2020/12/04 04:57:25;;;;;;;7.40;5.25;;;;;;;;;;5080074;28;20205;-52
2020/12/04 04:59:54;;;;;;;5.88;4.43;;;;;;;;;;5079492;28;20191;-52
2020/12/04 05:02:21;;;;;;;6.80;4.10;;;;;;;;;;5079413;28;20188;-57
2020/12/04 05:04:52;;;;;;;7.03;4.50;;;;;;;;;;5079070;28;20197;-56
2020/12/04 05:07:26;;;;;;;11.35;4.60;;;;;;;;;;5079264;28;20212;-51
2020/12/04 05:09:53;;;;;;;7.43;3.58;;;;;;;;;;5079039;28;20193;-57
2020/12/04 05:12:20;;;;;;;5.70;4.38;;;;;;;;;;5079557;28;20232;-54
2020/12/04 05:14:47;;;;;;;6.85;4.15;;;;;;;;;;5079440;28;20193;-53
2020/12/04 05:17:14;;;;;;;7.68;5.38;;;;;;;;;;5079082;28;20193;-54
2020/12/04 05:19:42;;;;;;;7.25;4.30;;;;;;;;;;5078632;28;20200;-54
2020/12/04 05:22:11;;;;;;;7.90;4.38;;;;;;;;;;5078036;28;20289;-53
2020/12/04 05:24:39;;;;;;;5.43;3.70;;;;;;;;;;5079014;28;20213;-56
2020/12/04 05:27:29;;;;;;;6.60;4.10;;;;;;;;;;5079328;28;20198;-55
2020/12/04 05:33:01;;;;;;;6.13;3.85;;;;;;;;;;5077431;28;20232;-49
2020/12/04 05:35:28;;;;;;;4.80;3.60;;;;;;;;;;5079273;28;20275;-60
2020/12/04 05:38:10;;;;;;;5.57;3.40;;;;;;;;;;5078909;28;20206;-59
2020/12/04 05:40:37;;;;;;;5.20;3.45;;;;;;;;;;5078007;28;20209;-56
2020/12/04 05:43:06;;;;;;;6.22;3.45;;;;;;;;;;5078916;28;20204;-53
2020/12/04 05:46:02;;;;;;;4.05;2.90;;;;;;;;;;5079009;28;20212;-56
2020/12/04 05:48:30;;;;;;;5.65;3.30;;;;;;;;;;5078377;28;20264;-57
2020/12/04 05:50:58;;;;;;;4.47;2.85;;;;;;;;;;5078419;28;20264;-51
2020/12/04 05:53:27;;;;;;;4.90;3.05;;;;;;;;;;5078757;28;20226;-55
2020/12/04 05:55:54;;;;;;;5.68;3.67;;;;;;;;;;5078087;28;21366;-54
2020/12/04 05:58:35;;;;;;;5.78;3.40;;;;;;;;;;5078782;28;20229;-55
2020/12/04 06:01:13;;;;;;;7.97;3.30;;;;;;;;;;5073295;28;20207;-54
2020/12/04 06:03:40;;;;;;;5.35;3.17;;;;;;;;;;5076180;28;20186;-57
2020/12/04 06:06:09;;;;;;;4.32;3.03;;;;;;;;;;5078746;28;20261;-54
2020/12/04 06:08:59;;;;;;;4.50;3.17;;;;;;;;;;5077881;28;20279;-52
2020/12/04 06:11:31;;;;;;;4.47;3.03;;;;;;;;;;5076638;28;20229;-55
2020/12/04 06:13:59;;;;;;;5.80;3.22;;;;;;;;;;5060169;28;20244;-59
2020/12/04 06:17:02;;;;;;;4.57;2.80;;;;;;;;;;5077955;28;20215;-57
2020/12/04 06:19:31;;;;;;;4.35;2.90;;;;;;;;;;5071385;28;20228;-58
2020/12/04 06:22:05;;;;;;;4.90;2.90;;;;;;;;;;5077528;28;20231;-58
2020/12/04 06:24:32;;;;;;;5.65;3.20;;;;;;;;;;5073871;28;20198;-56
2020/12/04 06:27:05;;;;;;;4.15;2.42;;;;;;;;;;5061614;28;20191;-56
2020/12/04 06:29:58;;;;;;;4.38;3.53;;;;;;;;;;5077902;28;20206;-51
2020/12/04 06:32:41;;;;;;;4.05;2.40;;;;;;;;;;5075283;28;20224;-51
2020/12/04 06:35:40;;;;;;;5.47;2.70;;;;;;;;;;5075662;28;20202;-56
2020/12/04 06:38:08;;;;;;;5.75;2.90;;;;;;;;;;5076812;28;20206;-53
2020/12/04 06:40:53;;;;;;;4.22;2.45;;;;;;;;;;5077020;28;20197;-49
2020/12/04 06:43:35;;;;;;;8.05;3.20;;;;;;;;;;5077387;28;20244;-61
2020/12/04 06:52:13;;;;;;;3.53;2.50;;;;;;;;;;5069851;28;20265;-56
2020/12/04 06:54:47;;;;;;;3.97;2.60;;;;;;;;;;5056681;28;20199;-54
2020/12/04 06:57:22;;;;;;;3.75;2.33;;;;;;;;;;5056117;28;20234;-52
2020/12/04 06:59:50;;;;;;;3.95;2.60;;;;;;;;;;5055901;28;20194;-55
2020/12/04 07:02:18;;;;;;;3.20;1.90;;;;;;;;;;5056396;28;20214;-50
2020/12/04 07:04:47;;;;;;;2.75;1.60;;;;;;;;;;5039409;28;20217;-56
2020/12/04 07:07:14;;;;;;;3.03;2.00;;;;;;;;;;5056075;28;20197;-56
2020/12/04 07:09:43;;;;;;;5.22;2.35;;;;;;;;;;5055606;28;20200;-52
2020/12/04 07:12:14;;;;;;;3.50;2.63;;;;;;;;;;5055711;28;20223;-51
2020/12/04 07:14:54;;;;;;;3.80;2.45;;;;;;;;;;5063403;28;20197;-55
2020/12/04 07:17:41;;;;;;;3.45;2.38;;;;;;;;;;5056397;28;20216;-56
2020/12/04 07:20:08;;;;;;;3.45;2.28;;;;;;;;;;5028426;28;20302;-55
2020/12/04 07:22:35;;;;;;;3.45;2.25;;;;;;;;;;5015475;28;20224;-55
2020/12/04 07:25:02;;;;;;;4.15;2.00;;;;;;;;;;5015884;28;20200;-57
2020/12/04 07:27:29;;;;;;;4.30;2.30;;;;;;;;;;5015891;28;20308;-55
2020/12/04 07:29:59;;;;;;;3.50;1.98;;;;;;;;;;5015652;28;20203;-56
2020/12/04 07:32:28;;;;;;;3.20;1.92;;;;;;;;;;5016544;28;20216;-56
2020/12/04 07:35:02;;;;;;;4.47;2.38;;;;;;;;;;5016925;28;20204;-56
2020/12/04 07:37:45;;;;;;;4.80;2.78;;;;;;;;;;5016583;28;20212;-53
2020/12/04 07:40:12;;;;;;;5.93;3.15;;;;;;;;;;5041114;28;20237;-53
2020/12/04 07:42:48;;;;;;;4.78;3.20;;;;;;;;;;5055079;28;20240;-54
2020/12/04 07:45:34;;;;;;;3.70;1.95;;;;;;;;;;5055755;28;20258;-57
2020/12/04 07:48:09;;;;;;;5.60;3.13;;;;;;;;;;5055537;28;20218;-60
2020/12/04 07:50:38;;;;;;;3.13;2.00;;;;;;;;;;5055266;28;20206;-50
2020/12/04 07:53:32;;;;;;;6.68;2.80;;;;;;;;;;5056264;28;20204;-54
2020/12/04 07:56:05;;;;;;;5.80;2.47;;;;;;;;;;5057038;28;20211;-54
2020/12/04 07:58:34;;;;;;;5.20;3.00;;;;;;;;;;5056487;28;20189;-47
2020/12/04 08:01:02;;;;;;;4.35;1.98;;;;;;;;;;5056444;28;20206;-56
2020/12/04 08:03:30;;;;;;;4.40;2.80;;;;;;;;;;5056168;28;20214;-56
2020/12/04 08:06:11;;;;;;;3.30;2.00;;;;;;;;;;5055606;28;20205;-53
2020/12/04 08:08:38;;;;;;;2.80;1.88;;;;;;;;;;5056027;28;20358;-54
2020/12/04 08:11:09;;;;;;;2.97;1.95;;;;;;;;;;5055869;28;20261;-56
2020/12/04 08:13:45;;;;;;;3.40;2.00;;;;;;;;;;5054991;28;20221;-55
2020/12/04 08:16:12;;;;;;;4.15;1.80;;;;;;;;;;5056306;28;20198;-55
2020/12/04 08:18:48;;;;;;;2.72;1.70;;;;;;;;;;5055740;28;20206;-52
2020/12/04 08:21:16;;;;;;;4.25;2.33;;;;;;;;;;5060356;28;20204;-52
2020/12/04 08:23:43;;;;;;;3.97;2.00;;;;;;;;;;5055384;28;20256;-52
2020/12/04 08:26:20;;;;;;;4.03;1.80;;;;;;;;;;5055253;28;20250;-55
2020/12/04 08:28:54;;;;;;;3.67;2.25;;;;;;;;;;5055302;28;20243;-59
2020/12/04 08:31:26;;;;;;;3.40;1.60;;;;;;;;;;5054620;28;20209;-58
2020/12/04 08:33:53;;;;;;;2.97;2.30;;;;;;;;;;5036529;28;20246;-57
2020/12/04 08:36:21;;;;;;;5.88;2.40;;;;;;;;;;5056813;28;20194;-51
2020/12/04 08:38:54;;;;;;;3.88;2.08;;;;;;;;;;5054808;28;20190;-55
2020/12/04 08:41:43;;;;;;;4.20;2.42;;;;;;;;;;5038366;28;20210;-58
2020/12/04 08:44:25;;;;;;;4.05;1.77;;;;;;;;;;5054871;28;20194;-54
2020/12/04 08:46:52;;;;;;;3.47;2.33;;;;;;;;;;5055389;28;20208;-53
2020/12/04 08:49:29;;;;;;;3.33;2.15;;;;;;;;;;5051863;28;20222;-59
2020/12/04 08:51:59;;;;;;;2.90;1.85;;;;;;;;;;5055607;28;20210;-54
2020/12/04 08:54:27;;;;;;;3.10;1.98;;;;;;;;;;5055541;28;20225;-52
2020/12/04 08:57:12;;;;;;;3.30;1.65;;;;;;;;;;5055697;28;20199;-56
2020/12/04 08:59:41;;;;;;;3.80;2.00;;;;;;;;;;5055408;28;20202;-55
2020/12/04 09:02:08;;;;;;;3.47;2.05;;;;;;;;;;5055536;28;20187;-54
2020/12/04 09:04:37;;;;;;;3.60;1.60;;;;;;;;;;5055215;28;20226;-56
2020/12/04 09:07:05;;;;;;;6.25;2.40;;;;;;;;;;5055152;28;20207;-53
2020/12/04 09:09:32;;;;;;;3.20;1.88;;;;;;;;;;5054816;28;20206;-47
2020/12/04 09:12:21;;;;;;;4.38;2.50;;;;;;;;;;5055035;28;20217;-49
2020/12/04 09:14:49;;;;;;;3.67;2.05;;;;;;;;;;5054984;28;20238;-49
2020/12/04 09:17:16;;;;;;;6.35;2.80;;;;;;;;;;5054621;28;20194;-57
2020/12/04 09:19:48;;;;;;;3.28;1.88;;;;;;;;;;5037796;28;20199;-47
2020/12/04 09:22:42;;;;;;;3.17;1.70;;;;;;;;;;5053783;28;20220;-58
2020/12/04 09:25:13;;;;;;;9.60;4.78;;;;;;;;;;5054527;28;20238;-55
2020/12/04 09:27:41;;;;;;;3.95;2.05;;;;;;;;;;5054807;28;20203;-59
2020/12/04 09:30:08;;;;;;;3.10;1.55;;;;;;;;;;5054915;28;20223;-56
2020/12/04 09:32:36;;;;;;;4.40;1.55;;;;;;;;;;5057635;28;20219;-49
2020/12/04 09:35:03;;;;;;;6.55;1.77;;;;;;;;;;5058195;28;20199;-51
2020/12/04 09:37:32;;;;;;;3.15;1.20;;;;;;;;;;5058434;28;20283;-48
2020/12/04 09:39:59;;;;;;;4.05;2.00;;;;;;;;;;5058239;28;20218;-54
2020/12/04 09:42:32;;;;;;;3.00;1.60;;;;;;;;;;5058689;28;20210;-56
2020/12/04 09:45:07;;;;;;;4.20;1.50;;;;;;;;;;5034141;28;20229;-60
2020/12/04 09:47:37;;;;;;;4.55;1.83;;;;;;;;;;5067501;28;20224;-58
2020/12/04 09:50:10;;;;;;;2.85;1.90;;;;;;;;;;5044450;28;20219;-56
2020/12/04 09:52:41;;;;;;;12.45;2.80;;;;;;;;;;5037497;28;20236;-52
2020/12/04 09:55:08;;;;;;;4.05;1.70;;;;;;;;;;5038294;28;20205;-51
2020/12/04 09:57:36;;;;;;;5.53;1.65;;;;;;;;;;5038482;28;20207;-59
2020/12/04 10:00:04;;;;;;;3.92;2.50;;;;;;;;;;5044726;28;20197;-50
2020/12/04 10:02:34;;;;;;;4.28;2.00;;;;;;;;;;5057915;28;20198;-54
2020/12/04 10:05:04;;;;;;;2.67;1.23;;;;;;;;;;5056991;28;20204;-56
2020/12/04 10:07:32;;;;;;;3.15;1.38;;;;;;;;;;5058252;28;20222;-56
2020/12/04 10:10:01;;;;;;;5.90;2.88;;;;;;;;;;5057558;28;20599;-57
2020/12/04 10:12:34;;;;;;;4.07;1.55;;;;;;;;;;5057883;28;20203;-52
2020/12/04 10:15:03;;;;;;;6.28;2.40;;;;;;;;;;5057048;28;20219;-56
2020/12/04 10:17:30;;;;;;;2.97;1.48;;;;;;;;;;5057482;28;20219;-54
2020/12/04 10:20:02;;;;;;;3.15;1.85;;;;;;;;;;5056912;28;20209;-56
2020/12/04 10:22:29;;;;;;;3.60;1.25;;;;;;;;;;5058090;28;20279;-53
2020/12/04 10:24:57;;;;;;;6.50;1.83;;;;;;;;;;5057206;28;20251;-54
2020/12/04 10:27:30;;;;;;;3.28;1.63;;;;;;;;;;5057030;28;20213;-61
2020/12/04 10:29:58;;;;;;;1.95;1.02;;;;;;;;;;5048690;28;20200;-57
2020/12/04 10:32:28;;;;;;;2.30;1.08;;;;;;;;;;5056666;28;20192;-50
2020/12/04 10:35:18;;;;;;;4.57;2.00;;;;;;;;;;5056583;28;20213;-54
2020/12/04 10:37:46;;;;;;;12.98;5.50;;;;;;;;;;5062487;28;20215;-53
2020/12/04 10:40:27;;;;;;;4.00;2.10;;;;;;;;;;5076766;28;20204;-55
2020/12/04 10:42:55;;;;;;;8.32;2.38;;;;;;;;;;5074640;28;20998;-52
2020/12/04 10:45:22;;;;;;;2.28;1.30;;;;;;;;;;5075825;28;20197;-57
2020/12/04 10:47:49;;;;;;;3.05;1.48;;;;;;;;;;5076710;28;20202;-55
2020/12/04 10:50:16;;;;;;;3.63;1.92;;;;;;;;;;5076865;28;20176;-56
2020/12/04 10:52:58;;;;;;;3.95;1.75;;;;;;;;;;5073162;28;20212;-56
2020/12/04 10:55:28;;;;;;;4.22;2.47;;;;;;;;;;5064150;28;20196;-54
2020/12/04 10:58:01;;;;;;;4.53;2.15;;;;;;;;;;5076708;28;20196;-56
2020/12/04 11:00:30;;;;;;;8.43;6.25;;;;;;;;;;5076172;28;20216;-55
2020/12/04 11:03:09;;;;;;;4.47;2.83;;;;;;;;;;5073407;28;20262;-53
2020/12/04 11:05:39;;;;;;;3.20;1.10;;;;;;;;;;5075264;28;20227;-57
2020/12/04 11:08:13;;;;;;;2.70;1.13;;;;;;;;;;5064098;28;20225;-53
2020/12/04 11:10:41;;;;;;;2.88;1.35;;;;;;;;;;5055961;28;20213;-55
2020/12/04 11:13:09;;;;;;;2.45;1.50;;;;;;;;;;5069878;28;20212;-52
2020/12/04 11:15:51;;;;;;;3.47;1.88;;;;;;;;;;5075552;28;20196;-56
2020/12/04 11:18:19;;;;;;;3.60;1.23;;;;;;;;;;5075937;28;20204;-52
2020/12/04 11:20:50;;;;;;;3.20;1.83;;;;;;;;;;5076059;28;20235;-52
2020/12/04 11:23:22;;;;;;;8.57;1.90;;;;;;;;;;5075612;28;20529;-55
2020/12/04 11:25:49;;;;;;;2.67;1.60;;;;;;;;;;5076047;28;20199;-55
2020/12/04 11:28:36;;;;;;;2.58;1.67;;;;;;;;;;5066882;28;20204;-54
2020/12/04 11:31:16;;;;;;;4.13;1.83;;;;;;;;;;5075371;28;20359;-56
2020/12/04 11:33:43;;;;;;;5.43;1.75;;;;;;;;;;5076439;28;20250;-54
2020/12/04 11:36:10;;;;;;;8.77;2.00;;;;;;;;;;5076214;28;20201;-60
2020/12/04 11:38:44;;;;;;;4.80;2.10;;;;;;;;;;5075842;28;20214;-53
2020/12/04 11:41:10;;;;;;;5.13;2.08;;;;;;;;;;5070208;28;20220;-57
2020/12/04 11:43:38;;;;;;;2.97;1.35;;;;;;;;;;5057252;28;20219;-51
2020/12/04 11:46:06;;;;;;;7.93;1.35;;;;;;;;;;5075162;28;20215;-58
2020/12/04 11:48:37;;;;;;;2.35;0.98;;;;;;;;;;5075673;28;20283;-51
2020/12/04 11:51:27;;;;;;;3.45;1.70;;;;;;;;;;5068865;28;20236;-53
2020/12/04 11:53:56;;;;;;;3.45;1.50;;;;;;;;;;5057796;28;20238;-56
2020/12/04 11:56:24;;;;;;;3.17;1.15;;;;;;;;;;5075169;28;20219;-56
2020/12/04 11:58:58;;;;;;;4.35;1.10;;;;;;;;;;5074749;28;20242;-60
2020/12/04 12:01:26;;;;;;;3.05;1.25;;;;;;;;;;5074642;28;20212;-54
2020/12/04 12:03:53;;;;;;;2.25;1.10;;;;;;;;;;5073197;28;20252;-51
2020/12/04 12:06:20;;;;;;;3.55;1.77;;;;;;;;;;5062951;28;20244;-55
2020/12/04 12:09:10;;;;;;;3.03;1.33;;;;;;;;;;5054948;28;20213;-58
2020/12/04 12:11:37;;;;;;;2.75;1.17;;;;;;;;;;5055320;28;20298;-55
2020/12/04 12:14:05;;;;;;;4.32;2.65;;;;;;;;;;5054472;28;20264;-52
2020/12/04 12:16:40;;;;;;;3.40;1.48;;;;;;;;;;5070156;28;20208;-50
2020/12/04 12:19:06;;;;;;;3.20;1.48;;;;;;;;;;5069181;28;20258;-56
2020/12/04 12:21:35;;;;;;;3.78;1.30;;;;;;;;;;5074346;28;20342;-58
2020/12/04 12:24:38;;;;;;;2.03;1.33;;;;;;;;;;5046756;28;20246;-57
2020/12/04 12:27:08;;;;;;;1.90;1.08;;;;;;;;;;5068423;28;20216;-55
2020/12/04 12:29:57;;;;;;;3.15;2.35;;;;;;;;;;5073735;28;20211;-59
2020/12/04 12:32:25;;;;;;;6.43;2.42;;;;;;;;;;5074882;28;20271;-55
2020/12/04 12:35:02;;;;;;;3.35;1.70;;;;;;;;;;5074268;28;20228;-57
2020/12/04 12:37:45;;;;;;;2.58;1.10;;;;;;;;;;5074658;28;20191;-57
2020/12/04 12:40:12;;;;;;;7.18;1.90;;;;;;;;;;5074755;28;20207;-55
2020/12/04 12:42:41;;;;;;;2.95;1.50;;;;;;;;;;5074812;28;20260;-55
2020/12/04 12:45:08;;;;;;;3.72;1.70;;;;;;;;;;5074438;28;20194;-53
2020/12/04 12:47:40;;;;;;;4.80;2.13;;;;;;;;;;5069764;28;20252;-57
2020/12/04 12:50:07;;;;;;;6.07;2.80;;;;;;;;;;5059813;28;20211;-54
2020/12/04 12:52:52;;;;;;;4.43;1.95;;;;;;;;;;5074697;28;20211;-52
2020/12/04 12:55:19;;;;;;;5.60;2.80;;;;;;;;;;5074739;28;20200;-50
2020/12/04 12:57:48;;;;;;;5.63;3.33;;;;;;;;;;5070266;28;20207;-49
2020/12/04 13:00:24;;;;;;;4.53;2.45;;;;;;;;;;5067177;28;20192;-53
2020/12/04 13:03:03;;;;;;;2.80;1.75;;;;;;;;;;5073946;28;20206;-46
2020/12/04 13:05:56;;;;;;;4.32;2.45;;;;;;;;;;5074381;28;20210;-56
2020/12/04 13:08:24;;;;;;;5.95;1.90;;;;;;;;;;5077926;28;20263;-55
2020/12/04 13:10:51;;;;;;;4.10;1.88;;;;;;;;;;5065122;28;20227;-53
2020/12/04 13:13:20;;;;;;;6.97;1.90;;;;;;;;;;5069296;28;20258;-56
2020/12/04 13:15:49;;;;;;;5.80;2.50;;;;;;;;;;5078898;28;20208;-49
2020/12/04 13:18:18;;;;;;;3.20;1.70;;;;;;;;;;5078746;28;20247;-59
2020/12/04 13:23:49;;;;;;;4.72;1.90;;;;;;;;;;5075754;28;20218;-57
2020/12/04 13:28:57;;;;;;;5.50;2.28;;;;;;;;;;5076969;28;20188;-56
2020/12/04 13:31:28;;;;;;;4.63;1.70;;;;;;;;;;5077633;28;20202;-55
2020/12/04 13:34:11;;;;;;;4.15;1.60;;;;;;;;;;5070485;28;20244;-55
2020/12/04 13:36:38;;;;;;;3.92;2.22;;;;;;;;;;5037654;28;20578;-54
2020/12/04 13:42:09;;;;;;;11.05;3.75;;;;;;;;;;5046513;28;20215;-56
2020/12/04 13:44:38;;;;;;;4.40;2.83;;;;;;;;;;5077427;28;20193;-57
2020/12/04 13:47:24;;;;;;;15.20;13.90;;;;;;;;;;5077683;28;20193;-53
2020/12/04 13:49:51;;;;;;;5.68;4.03;;;;;;;;;;5077253;28;20292;-56
2020/12/04 13:52:18;;;;;;;5.85;2.67;;;;;;;;;;5077280;28;20204;-53
2020/12/04 13:55:14;;;;;;;6.95;3.17;;;;;;;;;;5077642;28;20216;-57
2020/12/04 13:57:41;;;;;;;3.85;1.58;;;;;;;;;;5075383;28;20223;-56
2020/12/04 14:00:08;;;;;;;3.10;1.98;;;;;;;;;;5077313;28;20216;-56
2020/12/04 14:02:37;;;;;;;5.63;1.95;;;;;;;;;;5077114;28;20238;-59
2020/12/04 14:05:05;;;;;;;5.28;2.88;;;;;;;;;;5069920;28;20404;-53
2020/12/04 14:07:38;;;;;;;5.85;2.10;;;;;;;;;;5076914;28;20197;-57
2020/12/04 14:10:06;;;;;;;4.90;2.50;;;;;;;;;;5071038;28;20243;-53
2020/12/04 14:12:34;;;;;;;4.63;1.88;;;;;;;;;;5062703;28;20196;-57
2020/12/04 14:18:04;;;;;;;5.40;2.65;;;;;;;;;;5057604;28;20221;-50
2020/12/04 14:20:33;;;;;;;3.63;1.85;;;;;;;;;;5056912;28;20201;-58
2020/12/04 14:23:09;;;;;;;5.68;2.20;;;;;;;;;;5057052;28;20241;-59
2020/12/04 14:25:36;;;;;;;4.05;1.98;;;;;;;;;;5057366;28;20446;-57
2020/12/04 14:28:03;;;;;;;12.15;2.00;;;;;;;;;;5057337;28;20231;-55
2020/12/04 14:30:45;;;;;;;9.25;2.95;;;;;;;;;;5072294;28;20263;-57
2020/12/04 14:33:25;;;;;;;6.93;1.83;;;;;;;;;;5077433;28;20246;-55
2020/12/04 14:36:07;;;;;;;3.35;2.00;;;;;;;;;;5074162;28;20227;-53
2020/12/04 14:41:34;;;;;;;2.60;1.75;;;;;;;;;;5056518;28;20186;-53
2020/12/04 14:44:03;;;;;;;4.38;2.55;;;;;;;;;;5057104;28;20201;-55
2020/12/04 14:46:32;;;;;;;8.60;4.30;;;;;;;;;;5067397;28;20208;-59
2020/12/04 14:49:12;;;;;;;5.10;2.80;;;;;;;;;;5061090;28;20197;-56
2020/12/04 14:51:41;;;;;;;4.22;2.70;;;;;;;;;;5063918;28;20290;-47
2020/12/04 14:54:08;;;;;;;4.97;2.20;;;;;;;;;;5067305;28;20259;-58
2020/12/04 14:56:40;;;;;;;5.50;2.33;;;;;;;;;;5075977;28;20366;-54
2020/12/04 14:59:07;;;;;;;3.40;2.28;;;;;;;;;;5072054;28;20287;-53
2020/12/04 15:01:45;;;;;;;3.90;2.60;;;;;;;;;;5061448;28;20252;-58
2020/12/04 15:04:13;;;;;;;6.03;3.85;;;;;;;;;;5076450;28;20230;-57
2020/12/04 15:06:45;;;;;;;6.43;2.97;;;;;;;;;;5076343;28;20215;-53
2020/12/04 15:09:43;;;;;;;6.07;3.67;;;;;;;;;;5065487;28;20202;-52
2020/12/04 15:12:11;;;;;;;3.50;1.95;;;;;;;;;;5072350;28;20225;-56
2020/12/04 15:14:39;;;;;;;3.35;2.30;;;;;;;;;;5072765;28;20219;-49
2020/12/04 15:17:13;;;;;;;3.90;2.30;;;;;;;;;;5076569;28;20216;-48
2020/12/04 15:19:43;;;;;;;4.70;2.33;;;;;;;;;;5073258;28;20204;-54
2020/12/04 15:22:12;;;;;;;4.35;2.38;;;;;;;;;;5076060;28;20207;-59
2020/12/04 15:24:48;;;;;;;2.75;1.50;;;;;;;;;;5076089;28;20208;-57
2020/12/04 15:27:17;;;;;;;3.05;1.83;;;;;;;;;;5074806;28;20279;-61
2020/12/04 15:29:44;;;;;;;5.30;2.90;;;;;;;;;;5075057;28;20214;-55
2020/12/04 15:32:33;;;;;;;5.03;2.45;;;;;;;;;;5074445;28;20272;-51
2020/12/04 15:35:01;;;;;;;3.47;2.45;;;;;;;;;;5075043;28;20290;-57